Sorrento, Florida
Current Conditions -  °F | °C
As of 2:53 PM on Tuesday 21 Oct 2014 (Local Time) from KLEE Reporting Station
Clear Clear  
Wind Chill: 82°   Ceiling: Unl
Heat Index: 84°   Visibility: 10mi
Dew Point: 65°   Wind: 3mph
Humidity: 56%   Direction: NA
Pressure: 29.93"   Gusts: NA
Location:  28.81°N, 81.56°W
Report Text: KLEE 211853Z VRB03KT 10SM CLR 28/18 A2993 RMK AO2 SLP135 T02780183
Loading
Personal Weather Stations






























Interactive Weather Map New forecast layout! Learn more

10-Day Weather Forecast

Advertisements
Track Severe Weather on mobile